CheckWX is a tool to help pilots better visualize weather data.  It is not intended as a substitute for an official pre-flight weather briefing.

17:33:42 UTC

CYFC TAF
Fredericton Airport
Fredericton, Canada
TAF CYFC 181138Z 1812/1824 VRB03KT P6SM SKC BECMG 1815/1817 21008KT FM181700 21008KT P6SM BKN090 RMK FCST BASED ON AUTO OBS. NXT FCST BY 181800Z

Jun-18@
12:00 UTC

Jun-18 @ 12:00 UTC

Jun-18@
15:00 UTC

Jun-18 @ 15:00 UTC

TAF CYFC 181138Z 1812/1824 VRB03KT P6SM SKC

Expired

Wind
  • Variable at 3 KTS
Cloud Levels
  • Clear skies

Jun-18@
15:00 UTC

Jun-18 @ 15:00 UTC

Jun-18@
17:00 UTC

Jun-18 @ 17:00 UTC

BECMG 1815/1817 21008KT

Expired

Wind
  • 210° at 8 KTS
Cloud Levels
  • Clear skies

Jun-18@
17:00 UTC

Jun-18 @ 17:00 UTC

Jun-19@
00:00 UTC

Jun-19 @ 00:00 UTC

FM181700 21008KT P6SM BKN090 RMK FCST BASED ON AUTO OBS. NXT FCST BY 181800Z

From

From Standard forecast or significant change

Wind
  • 210° at 8 KTS
Cloud Levels
  • Broken at 9,000' AGL